sensor_id;sensor_type;location;lat;lon;timestamp;temperature;humidity
13589;DHT22;6865;52.552;13.434;2023-04-03T00:00:45;1.30;99.90
13589;DHT22;6865;52.552;13.434;2023-04-03T00:03:12;1.30;99.90
13589;DHT22;6865;52.552;13.434;2023-04-03T00:05:39;1.30;99.90
13589;DHT22;6865;52.552;13.434;2023-04-03T00:08:05;1.20;99.90
13589;DHT22;6865;52.552;13.434;2023-04-03T00:10:34;1.20;99.90
13589;DHT22;6865;52.552;13.434;2023-04-03T00:13:05;1.20;99.90
13589;DHT22;6865;52.552;13.434;2023-04-03T00:15:33;1.20;99.90
13589;DHT22;6865;52.552;13.434;2023-04-03T00:17:59;1.20;99.90
13589;DHT22;6865;52.552;13.434;2023-04-03T00:20:26;1.20;99.90
13589;DHT22;6865;52.552;13.434;2023-04-03T00:22:54;1.20;99.90
13589;DHT22;6865;52.552;13.434;2023-04-03T00:25:21;1.20;99.90
13589;DHT22;6865;52.552;13.434;2023-04-03T00:27:47;1.10;99.90
13589;DHT22;6865;52.552;13.434;2023-04-03T00:30:17;1.10;99.90
13589;DHT22;6865;52.552;13.434;2023-04-03T00:32:44;1.10;99.90
13589;DHT22;6865;52.552;13.434;2023-04-03T00:35:11;1.10;99.90
13589;DHT22;6865;52.552;13.434;2023-04-03T00:37:37;1.10;99.90
13589;DHT22;6865;52.552;13.434;2023-04-03T00:40:05;1.10;99.90
13589;DHT22;6865;52.552;13.434;2023-04-03T00:42:32;1.10;99.90
13589;DHT22;6865;52.552;13.434;2023-04-03T00:47:27;1.00;99.90
13589;DHT22;6865;52.552;13.434;2023-04-03T00:49:53;0.90;99.90
13589;DHT22;6865;52.552;13.434;2023-04-03T00:52:23;0.90;99.90
13589;DHT22;6865;52.552;13.434;2023-04-03T00:54:54;0.90;99.90
13589;DHT22;6865;52.552;13.434;2023-04-03T00:57:23;1.00;99.90
13589;DHT22;6865;52.552;13.434;2023-04-03T00:59:53;1.00;99.90
13589;DHT22;6865;52.552;13.434;2023-04-03T01:02:21;1.00;99.90
13589;DHT22;6865;52.552;13.434;2023-04-03T01:04:48;1.00;99.90
13589;DHT22;6865;52.552;13.434;2023-04-03T01:07:18;1.00;99.90
13589;DHT22;6865;52.552;13.434;2023-04-03T01:09:47;1.00;99.90
13589;DHT22;6865;52.552;13.434;2023-04-03T01:12:23;0.90;99.90
13589;DHT22;6865;52.552;13.434;2023-04-03T01:14:52;0.60;99.90
13589;DHT22;6865;52.552;13.434;2023-04-03T01:17:50;0.90;99.90
13589;DHT22;6865;52.552;13.434;2023-04-03T01:28:36;0.80;99.90
13589;DHT22;6865;52.552;13.434;2023-04-03T01:31:29;0.80;99.90
13589;DHT22;6865;52.552;13.434;2023-04-03T01:33:57;0.80;99.90
13589;DHT22;6865;52.552;13.434;2023-04-03T01:36:27;0.80;99.90
13589;DHT22;6865;52.552;13.434;2023-04-03T01:38:56;0.80;99.90
13589;DHT22;6865;52.552;13.434;2023-04-03T01:41:23;0.80;99.90
13589;DHT22;6865;52.552;13.434;2023-04-03T01:43:50;0.80;99.90
13589;DHT22;6865;52.552;13.434;2023-04-03T01:46:17;0.80;99.90
13589;DHT22;6865;52.552;13.434;2023-04-03T01:48:45;0.80;99.90
13589;DHT22;6865;52.552;13.434;2023-04-03T01:51:12;0.80;99.90
13589;DHT22;6865;52.552;13.434;2023-04-03T01:53:38;0.70;99.90
13589;DHT22;6865;52.552;13.434;2023-04-03T01:56:05;0.70;99.90
13589;DHT22;6865;52.552;13.434;2023-04-03T01:58:32;0.70;99.90
13589;DHT22;6865;52.552;13.434;2023-04-03T02:00:59;0.60;99.90
13589;DHT22;6865;52.552;13.434;2023-04-03T02:03:25;0.60;99.90
13589;DHT22;6865;52.552;13.434;2023-04-03T02:05:52;-0.10;99.90
13589;DHT22;6865;52.552;13.434;2023-04-03T02:08:19;0.50;99.90
13589;DHT22;6865;52.552;13.434;2023-04-03T02:10:48;0.40;99.90
13589;DHT22;6865;52.552;13.434;2023-04-03T02:13:16;0.40;99.90
13589;DHT22;6865;52.552;13.434;2023-04-03T02:15:42;0.40;99.90
13589;DHT22;6865;52.552;13.434;2023-04-03T02:18:09;0.40;99.90
13589;DHT22;6865;52.552;13.434;2023-04-03T02:20:36;0.40;99.90
13589;DHT22;6865;52.552;13.434;2023-04-03T02:23:03;0.40;99.90
13589;DHT22;6865;52.552;13.434;2023-04-03T02:25:31;0.30;99.90
13589;DHT22;6865;52.552;13.434;2023-04-03T02:27:58;0.30;99.90
13589;DHT22;6865;52.552;13.434;2023-04-03T02:30:25;0.30;99.90
13589;DHT22;6865;52.552;13.434;2023-04-03T02:32:52;0.30;99.90
13589;DHT22;6865;52.552;13.434;2023-04-03T02:35:19;0.30;99.90
13589;DHT22;6865;52.552;13.434;2023-04-03T02:37:46;0.20;99.90
13589;DHT22;6865;52.552;13.434;2023-04-03T02:40:13;0.50;99.90
13589;DHT22;6865;52.552;13.434;2023-04-03T02:42:40;0.10;99.90
13589;DHT22;6865;52.552;13.434;2023-04-03T02:45:07;0.20;99.90
13589;DHT22;6865;52.552;13.434;2023-04-03T02:47:33;0.20;99.90
13589;DHT22;6865;52.552;13.434;2023-04-03T02:50:00;0.20;99.90
13589;DHT22;6865;52.552;13.434;2023-04-03T02:52:26;0.20;99.90
13589;DHT22;6865;52.552;13.434;2023-04-03T02:54:53;0.20;99.90
13589;DHT22;6865;52.552;13.434;2023-04-03T02:57:20;0.20;99.90
13589;DHT22;6865;52.552;13.434;2023-04-03T02:59:46;0.10;99.90
13589;DHT22;6865;52.552;13.434;2023-04-03T03:02:13;0.10;99.90
13589;DHT22;6865;52.552;13.434;2023-04-03T03:04:39;0.10;99.90
13589;DHT22;6865;52.552;13.434;2023-04-03T03:07:06;0.10;99.90
13589;DHT22;6865;52.552;13.434;2023-04-03T03:09:33;0.10;99.90
13589;DHT22;6865;52.552;13.434;2023-04-03T03:12:00;0.10;99.90
13589;DHT22;6865;52.552;13.434;2023-04-03T03:14:26;0.10;99.90
13589;DHT22;6865;52.552;13.434;2023-04-03T03:16:53;0.10;99.90
13589;DHT22;6865;52.552;13.434;2023-04-03T03:19:20;0.00;99.90
13589;DHT22;6865;52.552;13.434;2023-04-03T03:21:46;-0.30;99.90
13589;DHT22;6865;52.552;13.434;2023-04-03T03:24:13;0.90;99.90
13589;DHT22;6865;52.552;13.434;2023-04-03T03:26:40;-0.10;99.90
13589;DHT22;6865;52.552;13.434;2023-04-03T03:29:06;0.00;99.90
13589;DHT22;6865;52.552;13.434;2023-04-03T03:31:33;0.00;99.90
13589;DHT22;6865;52.552;13.434;2023-04-03T03:34:00;-0.10;99.90
13589;DHT22;6865;52.552;13.434;2023-04-03T03:36:26;-0.10;99.90
13589;DHT22;6865;52.552;13.434;2023-04-03T03:38:53;-0.20;99.90
13589;DHT22;6865;52.552;13.434;2023-04-03T03:41:20;-0.10;99.90
13589;DHT22;6865;52.552;13.434;2023-04-03T03:43:47;-0.10;99.90
13589;DHT22;6865;52.552;13.434;2023-04-03T03:46:13;0.10;99.90
13589;DHT22;6865;52.552;13.434;2023-04-03T03:48:40;-0.20;99.90
13589;DHT22;6865;52.552;13.434;2023-04-03T03:51:07;-0.20;99.90
13589;DHT22;6865;52.552;13.434;2023-04-03T03:53:34;-0.20;99.90
13589;DHT22;6865;52.552;13.434;2023-04-03T03:56:01;-0.20;99.90
13589;DHT22;6865;52.552;13.434;2023-04-03T03:58:28;-0.30;99.90
13589;DHT22;6865;52.552;13.434;2023-04-03T04:00:54;-0.40;99.90
13589;DHT22;6865;52.552;13.434;2023-04-03T04:03:21;-0.10;99.90
13589;DHT22;6865;52.552;13.434;2023-04-03T04:05:48;-0.80;99.90
13589;DHT22;6865;52.552;13.434;2023-04-03T04:08:15;-0.30;99.90
13589;DHT22;6865;52.552;13.434;2023-04-03T04:10:41;-0.70;99.90
13589;DHT22;6865;52.552;13.434;2023-04-03T04:13:08;-0.30;99.90
13589;DHT22;6865;52.552;13.434;2023-04-03T04:15:35;-0.30;99.90
13589;DHT22;6865;52.552;13.434;2023-04-03T04:18:02;-0.70;99.90
13589;DHT22;6865;52.552;13.434;2023-04-03T04:20:29;-0.40;99.90
13589;DHT22;6865;52.552;13.434;2023-04-03T04:22:55;-0.40;99.90
13589;DHT22;6865;52.552;13.434;2023-04-03T04:25:22;-0.40;99.90
13589;DHT22;6865;52.552;13.434;2023-04-03T04:27:49;-0.40;99.90
13589;DHT22;6865;52.552;13.434;2023-04-03T04:30:15;-0.40;99.90
13589;DHT22;6865;52.552;13.434;2023-04-03T04:32:42;-0.30;99.90
13589;DHT22;6865;52.552;13.434;2023-04-03T04:35:09;-0.30;99.90
13589;DHT22;6865;52.552;13.434;2023-04-03T04:37:36;-0.40;99.90
13589;DHT22;6865;52.552;13.434;2023-04-03T04:40:03;-0.30;99.90
13589;DHT22;6865;52.552;13.434;2023-04-03T04:42:30;-0.30;99.90
13589;DHT22;6865;52.552;13.434;2023-04-03T04:44:56;-0.30;99.90
13589;DHT22;6865;52.552;13.434;2023-04-03T04:47:28;-0.30;99.90
13589;DHT22;6865;52.552;13.434;2023-04-03T04:49:55;-0.40;99.90
13589;DHT22;6865;52.552;13.434;2023-04-03T04:52:22;-0.40;99.90
13589;DHT22;6865;52.552;13.434;2023-04-03T04:54:48;-0.30;99.90
13589;DHT22;6865;52.552;13.434;2023-04-03T04:57:15;-0.30;99.90
13589;DHT22;6865;52.552;13.434;2023-04-03T04:59:42;-0.30;99.90
13589;DHT22;6865;52.552;13.434;2023-04-03T05:02:09;-0.30;99.90
13589;DHT22;6865;52.552;13.434;2023-04-03T05:04:35;-0.30;99.90
13589;DHT22;6865;52.552;13.434;2023-04-03T05:07:02;-0.20;99.90
13589;DHT22;6865;52.552;13.434;2023-04-03T05:09:29;-0.30;99.90
13589;DHT22;6865;52.552;13.434;2023-04-03T05:11:55;-0.30;99.90
13589;DHT22;6865;52.552;13.434;2023-04-03T05:14:22;-0.30;99.90
13589;DHT22;6865;52.552;13.434;2023-04-03T05:16:49;-0.30;99.90
13589;DHT22;6865;52.552;13.434;2023-04-03T05:19:22;-0.20;99.90
13589;DHT22;6865;52.552;13.434;2023-04-03T05:21:49;-0.20;99.90
13589;DHT22;6865;52.552;13.434;2023-04-03T05:24:16;-0.20;99.90
13589;DHT22;6865;52.552;13.434;2023-04-03T05:26:43;-0.10;99.90
13589;DHT22;6865;52.552;13.434;2023-04-03T05:29:10;-0.10;99.90
13589;DHT22;6865;52.552;13.434;2023-04-03T05:31:36;0.20;99.90
13589;DHT22;6865;52.552;13.434;2023-04-03T05:34:03;0.00;99.90
13589;DHT22;6865;52.552;13.434;2023-04-03T05:36:30;0.10;99.90
13589;DHT22;6865;52.552;13.434;2023-04-03T05:38:56;0.10;99.90
13589;DHT22;6865;52.552;13.434;2023-04-03T05:41:24;-0.40;99.90
13589;DHT22;6865;52.552;13.434;2023-04-03T05:43:51;0.20;99.90
13589;DHT22;6865;52.552;13.434;2023-04-03T05:46:19;0.10;99.90
13589;DHT22;6865;52.552;13.434;2023-04-03T05:48:47;0.30;99.90
13589;DHT22;6865;52.552;13.434;2023-04-03T05:51:25;0.40;99.90
13589;DHT22;6865;52.552;13.434;2023-04-03T05:54:25;0.70;99.90
13589;DHT22;6865;52.552;13.434;2023-04-03T05:56:53;1.30;99.90
13589;DHT22;6865;52.552;13.434;2023-04-03T05:59:20;2.10;99.90
13589;DHT22;6865;52.552;13.434;2023-04-03T06:01:47;2.40;99.90
13589;DHT22;6865;52.552;13.434;2023-04-03T06:04:14;3.20;99.90
13589;DHT22;6865;52.552;13.434;2023-04-03T06:06:55;3.30;99.90
13589;DHT22;6865;52.552;13.434;2023-04-03T06:09:25;3.40;99.90
13589;DHT22;6865;52.552;13.434;2023-04-03T06:11:53;3.60;99.90
13589;DHT22;6865;52.552;13.434;2023-04-03T06:14:19;4.00;99.90
13589;DHT22;6865;52.552;13.434;2023-04-03T06:16:46;4.70;99.90
13589;DHT22;6865;52.552;13.434;2023-04-03T06:19:13;5.10;99.90
13589;DHT22;6865;52.552;13.434;2023-04-03T06:21:40;5.30;99.90
13589;DHT22;6865;52.552;13.434;2023-04-03T06:24:07;5.30;99.90
13589;DHT22;6865;52.552;13.434;2023-04-03T06:26:34;3.90;99.90
13589;DHT22;6865;52.552;13.434;2023-04-03T06:29:01;5.50;99.90
13589;DHT22;6865;52.552;13.434;2023-04-03T06:31:29;5.60;99.90
13589;DHT22;6865;52.552;13.434;2023-04-03T06:33:56;5.50;99.90
13589;DHT22;6865;52.552;13.434;2023-04-03T06:36:23;5.50;99.90
13589;DHT22;6865;52.552;13.434;2023-04-03T06:38:50;5.40;99.90
13589;DHT22;6865;52.552;13.434;2023-04-03T06:41:16;5.70;99.90
13589;DHT22;6865;52.552;13.434;2023-04-03T06:43:44;5.70;99.90
13589;DHT22;6865;52.552;13.434;2023-04-03T06:46:16;5.90;99.90
13589;DHT22;6865;52.552;13.434;2023-04-03T06:48:44;6.10;99.90
13589;DHT22;6865;52.552;13.434;2023-04-03T06:51:17;5.90;99.90
13589;DHT22;6865;52.552;13.434;2023-04-03T06:53:45;5.90;99.90
13589;DHT22;6865;52.552;13.434;2023-04-03T06:56:12;6.00;99.90
13589;DHT22;6865;52.552;13.434;2023-04-03T06:58:39;6.10;99.90
13589;DHT22;6865;52.552;13.434;2023-04-03T07:01:08;6.00;99.90
13589;DHT22;6865;52.552;13.434;2023-04-03T07:03:36;6.00;99.90
13589;DHT22;6865;52.552;13.434;2023-04-03T07:06:04;5.90;99.80
13589;DHT22;6865;52.552;13.434;2023-04-03T07:08:33;6.00;99.70
13589;DHT22;6865;52.552;13.434;2023-04-03T07:11:00;6.20;99.10
13589;DHT22;6865;52.552;13.434;2023-04-03T07:13:27;6.20;98.40
13589;DHT22;6865;52.552;13.434;2023-04-03T07:15:54;6.50;98.90
13589;DHT22;6865;52.552;13.434;2023-04-03T07:18:21;6.60;97.80
13589;DHT22;6865;52.552;13.434;2023-04-03T07:20:48;6.50;96.90
13589;DHT22;6865;52.552;13.434;2023-04-03T07:23:14;6.20;97.10
13589;DHT22;6865;52.552;13.434;2023-04-03T07:25:49;6.00;97.80
13589;DHT22;6865;52.552;13.434;2023-04-03T07:28:17;5.80;97.30
13589;DHT22;6865;52.552;13.434;2023-04-03T07:30:52;5.70;97.30
13589;DHT22;6865;52.552;13.434;2023-04-03T07:33:23;5.60;97.10
13589;DHT22;6865;52.552;13.434;2023-04-03T07:35:50;5.60;97.30
13589;DHT22;6865;52.552;13.434;2023-04-03T07:38:16;5.50;97.20
13589;DHT22;6865;52.552;13.434;2023-04-03T07:40:48;5.20;97.70
13589;DHT22;6865;52.552;13.434;2023-04-03T07:43:17;5.20;98.20
13589;DHT22;6865;52.552;13.434;2023-04-03T07:45:44;5.10;97.90
13589;DHT22;6865;52.552;13.434;2023-04-03T07:48:12;4.90;98.40
13589;DHT22;6865;52.552;13.434;2023-04-03T07:50:41;5.00;98.60
13589;DHT22;6865;52.552;13.434;2023-04-03T07:53:08;5.20;98.20
13589;DHT22;6865;52.552;13.434;2023-04-03T07:55:35;5.30;98.20
13589;DHT22;6865;52.552;13.434;2023-04-03T07:58:06;5.40;97.50
13589;DHT22;6865;52.552;13.434;2023-04-03T08:00:33;5.30;96.30
13589;DHT22;6865;52.552;13.434;2023-04-03T08:03:00;5.00;96.20
13589;DHT22;6865;52.552;13.434;2023-04-03T08:05:27;4.80;96.90
13589;DHT22;6865;52.552;13.434;2023-04-03T08:07:53;4.70;97.30
13589;DHT22;6865;52.552;13.434;2023-04-03T08:10:20;4.50;97.40
13589;DHT22;6865;52.552;13.434;2023-04-03T08:12:47;4.40;97.90
13589;DHT22;6865;52.552;13.434;2023-04-03T08:15:14;4.30;97.90
13589;DHT22;6865;52.552;13.434;2023-04-03T08:17:41;4.20;97.60
13589;DHT22;6865;52.552;13.434;2023-04-03T08:20:09;4.40;97.90
13589;DHT22;6865;52.552;13.434;2023-04-03T08:22:36;4.50;97.60
13589;DHT22;6865;52.552;13.434;2023-04-03T08:25:03;4.70;97.80
13589;DHT22;6865;52.552;13.434;2023-04-03T08:27:29;4.70;96.60
13589;DHT22;6865;52.552;13.434;2023-04-03T08:29:56;4.60;96.50
13589;DHT22;6865;52.552;13.434;2023-04-03T08:32:23;4.70;96.80
13589;DHT22;6865;52.552;13.434;2023-04-03T08:34:50;4.80;96.40
13589;DHT22;6865;52.552;13.434;2023-04-03T08:37:17;4.80;96.40
13589;DHT22;6865;52.552;13.434;2023-04-03T08:39:45;4.90;96.00
13589;DHT22;6865;52.552;13.434;2023-04-03T08:45:40;4.80;96.00
13589;DHT22;6865;52.552;13.434;2023-04-03T08:48:17;4.90;95.80
13589;DHT22;6865;52.552;13.434;2023-04-03T08:50:49;4.90;95.20
13589;DHT22;6865;52.552;13.434;2023-04-03T08:53:21;4.90;95.00
13589;DHT22;6865;52.552;13.434;2023-04-03T08:55:50;4.80;95.20
13589;DHT22;6865;52.552;13.434;2023-04-03T09:01:36;5.10;95.20
13589;DHT22;6865;52.552;13.434;2023-04-03T09:04:13;5.20;94.80
13589;DHT22;6865;52.552;13.434;2023-04-03T09:06:52;5.30;95.00
13589;DHT22;6865;52.552;13.434;2023-04-03T09:09:39;5.30;94.10
13589;DHT22;6865;52.552;13.434;2023-04-03T09:12:24;5.10;93.00
13589;DHT22;6865;52.552;13.434;2023-04-03T09:15:13;5.00;93.40
13589;DHT22;6865;52.552;13.434;2023-04-03T09:20:55;5.40;93.10
13589;DHT22;6865;52.552;13.434;2023-04-03T09:26:01;6.10;92.70
13589;DHT22;6865;52.552;13.434;2023-04-03T09:28:33;6.20;91.20
13589;DHT22;6865;52.552;13.434;2023-04-03T09:31:24;6.00;90.50
13589;DHT22;6865;52.552;13.434;2023-04-03T09:33:59;6.40;90.00
13589;DHT22;6865;52.552;13.434;2023-04-03T09:36:42;6.30;90.30
13589;DHT22;6865;52.552;13.434;2023-04-03T09:39:16;6.30;89.80
13589;DHT22;6865;52.552;13.434;2023-04-03T09:41:59;6.20;90.20
13589;DHT22;6865;52.552;13.434;2023-04-03T09:44:30;5.90;90.80
13589;DHT22;6865;52.552;13.434;2023-04-03T09:46:57;5.80;91.20
13589;DHT22;6865;52.552;13.434;2023-04-03T09:49:24;5.60;91.20
13589;DHT22;6865;52.552;13.434;2023-04-03T09:51:53;5.70;91.50
13589;DHT22;6865;52.552;13.434;2023-04-03T09:54:37;5.50;91.20
13589;DHT22;6865;52.552;13.434;2023-04-03T09:57:10;5.60;91.10
13589;DHT22;6865;52.552;13.434;2023-04-03T09:59:58;5.80;91.20
13589;DHT22;6865;52.552;13.434;2023-04-03T10:02:34;5.80;91.20
13589;DHT22;6865;52.552;13.434;2023-04-03T10:05:02;5.80;91.00
13589;DHT22;6865;52.552;13.434;2023-04-03T10:07:34;5.90;91.40
13589;DHT22;6865;52.552;13.434;2023-04-03T10:10:17;6.00;91.20
13589;DHT22;6865;52.552;13.434;2023-04-03T10:12:44;6.20;90.40
13589;DHT22;6865;52.552;13.434;2023-04-03T10:15:14;6.10;90.50
13589;DHT22;6865;52.552;13.434;2023-04-03T10:17:53;6.10;90.40
13589;DHT22;6865;52.552;13.434;2023-04-03T10:20:40;6.30;90.30
13589;DHT22;6865;52.552;13.434;2023-04-03T10:23:38;6.40;89.60
13589;DHT22;6865;52.552;13.434;2023-04-03T10:26:37;6.50;88.00
13589;DHT22;6865;52.552;13.434;2023-04-03T10:35:23;6.90;87.20
13589;DHT22;6865;52.552;13.434;2023-04-03T10:38:07;6.90;85.10
13589;DHT22;6865;52.552;13.434;2023-04-03T10:40:55;6.90;84.60
13589;DHT22;6865;52.552;13.434;2023-04-03T10:43:29;6.90;84.80
13589;DHT22;6865;52.552;13.434;2023-04-03T10:46:10;7.00;85.00
13589;DHT22;6865;52.552;13.434;2023-04-03T10:48:54;7.20;85.20
13589;DHT22;6865;52.552;13.434;2023-04-03T10:51:45;7.20;84.30
13589;DHT22;6865;52.552;13.434;2023-04-03T10:54:20;7.40;84.10
13589;DHT22;6865;52.552;13.434;2023-04-03T10:57:01;7.30;84.80
13589;DHT22;6865;52.552;13.434;2023-04-03T10:59:43;7.50;83.00
13589;DHT22;6865;52.552;13.434;2023-04-03T11:02:32;7.50;83.30
13589;DHT22;6865;52.552;13.434;2023-04-03T11:05:14;7.40;82.40
13589;DHT22;6865;52.552;13.434;2023-04-03T11:07:46;7.40;83.20
13589;DHT22;6865;52.552;13.434;2023-04-03T11:10:37;7.30;84.10
13589;DHT22;6865;52.552;13.434;2023-04-03T11:13:11;7.10;84.10
13589;DHT22;6865;52.552;13.434;2023-04-03T11:15:40;7.20;84.80
13589;DHT22;6865;52.552;13.434;2023-04-03T11:18:17;7.20;85.10
13589;DHT22;6865;52.552;13.434;2023-04-03T11:20:56;7.30;84.60
13589;DHT22;6865;52.552;13.434;2023-04-03T11:23:25;7.30;83.90
13589;DHT22;6865;52.552;13.434;2023-04-03T11:26:07;7.10;84.20
13589;DHT22;6865;52.552;13.434;2023-04-03T11:28:36;6.90;85.30
13589;DHT22;6865;52.552;13.434;2023-04-03T11:31:38;7.00;85.30
13589;DHT22;6865;52.552;13.434;2023-04-03T11:34:32;7.10;85.80
13589;DHT22;6865;52.552;13.434;2023-04-03T11:37:01;7.20;85.90
13589;DHT22;6865;52.552;13.434;2023-04-03T11:39:33;7.20;86.20
13589;DHT22;6865;52.552;13.434;2023-04-03T11:48:03;7.50;85.60
13589;DHT22;6865;52.552;13.434;2023-04-03T11:50:47;7.50;85.00
13589;DHT22;6865;52.552;13.434;2023-04-03T11:58:19;7.10;85.00
13589;DHT22;6865;52.552;13.434;2023-04-03T12:00:51;7.10;85.70
13589;DHT22;6865;52.552;13.434;2023-04-03T12:08:49;6.90;86.40
13589;DHT22;6865;52.552;13.434;2023-04-03T12:11:23;6.90;86.50
13589;DHT22;6865;52.552;13.434;2023-04-03T12:16:26;7.00;85.60
13589;DHT22;6865;52.552;13.434;2023-04-03T12:22:11;6.80;86.50
13589;DHT22;6865;52.552;13.434;2023-04-03T12:27:18;6.70;87.50
13589;DHT22;6865;52.552;13.434;2023-04-03T12:29:58;6.50;88.40
13589;DHT22;6865;52.552;13.434;2023-04-03T12:32:41;6.40;88.00
13589;DHT22;6865;52.552;13.434;2023-04-03T12:35:13;6.30;87.90
13589;DHT22;6865;52.552;13.434;2023-04-03T12:40:36;6.40;84.30
13589;DHT22;6865;52.552;13.434;2023-04-03T12:46:03;6.40;84.40
13589;DHT22;6865;52.552;13.434;2023-04-03T12:48:53;6.30;85.20
13589;DHT22;6865;52.552;13.434;2023-04-03T12:51:34;6.40;85.80
13589;DHT22;6865;52.552;13.434;2023-04-03T12:54:14;6.50;85.80
13589;DHT22;6865;52.552;13.434;2023-04-03T12:56:41;6.50;86.00
13589;DHT22;6865;52.552;13.434;2023-04-03T12:59:22;6.80;86.40
13589;DHT22;6865;52.552;13.434;2023-04-03T13:02:02;6.70;86.00
13589;DHT22;6865;52.552;13.434;2023-04-03T13:04:31;6.50;86.20
13589;DHT22;6865;52.552;13.434;2023-04-03T13:06:58;6.80;85.70
13589;DHT22;6865;52.552;13.434;2023-04-03T13:09:30;6.80;86.30
13589;DHT22;6865;52.552;13.434;2023-04-03T13:12:11;6.70;86.00
13589;DHT22;6865;52.552;13.434;2023-04-03T13:14:38;6.60;86.70
13589;DHT22;6865;52.552;13.434;2023-04-03T13:17:15;6.60;87.00
13589;DHT22;6865;52.552;13.434;2023-04-03T13:19:44;6.70;87.60
13589;DHT22;6865;52.552;13.434;2023-04-03T13:22:34;6.60;86.80
13589;DHT22;6865;52.552;13.434;2023-04-03T13:25:11;6.50;87.20
13589;DHT22;6865;52.552;13.434;2023-04-03T13:27:40;6.50;87.50
13589;DHT22;6865;52.552;13.434;2023-04-03T13:30:25;6.40;87.70
13589;DHT22;6865;52.552;13.434;2023-04-03T13:32:54;6.40;87.70
13589;DHT22;6865;52.552;13.434;2023-04-03T13:35:37;6.30;87.40
13589;DHT22;6865;52.552;13.434;2023-04-03T13:38:22;6.20;86.90
13589;DHT22;6865;52.552;13.434;2023-04-03T13:40:59;6.10;87.40
13589;DHT22;6865;52.552;13.434;2023-04-03T13:43:32;6.10;88.10
13589;DHT22;6865;52.552;13.434;2023-04-03T13:48:38;6.00;89.40
13589;DHT22;6865;52.552;13.434;2023-04-03T13:51:18;6.00;90.00
13589;DHT22;6865;52.552;13.434;2023-04-03T13:53:49;6.00;90.10
13589;DHT22;6865;52.552;13.434;2023-04-03T13:56:40;6.00;90.00
13589;DHT22;6865;52.552;13.434;2023-04-03T14:02:08;5.90;90.50
13589;DHT22;6865;52.552;13.434;2023-04-03T14:07:03;5.90;90.50
13589;DHT22;6865;52.552;13.434;2023-04-03T14:09:30;6.00;90.70
13589;DHT22;6865;52.552;13.434;2023-04-03T14:12:02;5.90;90.40
13589;DHT22;6865;52.552;13.434;2023-04-03T14:14:33;5.90;90.00
13589;DHT22;6865;52.552;13.434;2023-04-03T14:17:03;5.90;90.10
13589;DHT22;6865;52.552;13.434;2023-04-03T14:19:52;5.90;90.30
13589;DHT22;6865;52.552;13.434;2023-04-03T14:22:22;6.00;90.50
13589;DHT22;6865;52.552;13.434;2023-04-03T14:24:50;6.00;90.70
13589;DHT22;6865;52.552;13.434;2023-04-03T14:29:47;6.00;90.60
13589;DHT22;6865;52.552;13.434;2023-04-03T14:32:16;6.20;90.40
13589;DHT22;6865;52.552;13.434;2023-04-03T14:34:44;6.30;90.50
13589;DHT22;6865;52.552;13.434;2023-04-03T14:37:20;6.30;90.30
13589;DHT22;6865;52.552;13.434;2023-04-03T14:39:49;6.30;90.40
13589;DHT22;6865;52.552;13.434;2023-04-03T14:42:20;6.30;90.50
13589;DHT22;6865;52.552;13.434;2023-04-03T14:44:47;6.20;90.60
13589;DHT22;6865;52.552;13.434;2023-04-03T14:47:16;6.20;90.70
13589;DHT22;6865;52.552;13.434;2023-04-03T14:49:58;6.20;91.00
13589;DHT22;6865;52.552;13.434;2023-04-03T14:52:31;6.10;91.30
13589;DHT22;6865;52.552;13.434;2023-04-03T14:54:58;6.10;91.60
13589;DHT22;6865;52.552;13.434;2023-04-03T14:57:27;6.00;91.80
13589;DHT22;6865;52.552;13.434;2023-04-03T14:59:54;5.90;92.00
13589;DHT22;6865;52.552;13.434;2023-04-03T15:02:36;5.90;92.20
13589;DHT22;6865;52.552;13.434;2023-04-03T15:05:05;5.80;92.40
13589;DHT22;6865;52.552;13.434;2023-04-03T15:07:36;6.90;93.10
13589;DHT22;6865;52.552;13.434;2023-04-03T15:10:24;5.50;92.90
13589;DHT22;6865;52.552;13.434;2023-04-03T15:12:51;5.50;93.20
13589;DHT22;6865;52.552;13.434;2023-04-03T15:15:20;5.40;93.20
13589;DHT22;6865;52.552;13.434;2023-04-03T15:17:50;5.80;93.80
13589;DHT22;6865;52.552;13.434;2023-04-03T15:20:23;5.30;93.90
13589;DHT22;6865;52.552;13.434;2023-04-03T15:22:50;5.20;94.00
13589;DHT22;6865;52.552;13.434;2023-04-03T15:25:17;5.00;94.20
13589;DHT22;6865;52.552;13.434;2023-04-03T15:27:44;5.20;94.50
13589;DHT22;6865;52.552;13.434;2023-04-03T15:30:15;5.20;94.70
13589;DHT22;6865;52.552;13.434;2023-04-03T15:32:42;5.30;94.70
13589;DHT22;6865;52.552;13.434;2023-04-03T15:35:09;5.30;94.70
13589;DHT22;6865;52.552;13.434;2023-04-03T15:37:35;5.30;94.50
13589;DHT22;6865;52.552;13.434;2023-04-03T15:40:04;5.40;94.40
13589;DHT22;6865;52.552;13.434;2023-04-03T15:42:31;5.40;94.30
13589;DHT22;6865;52.552;13.434;2023-04-03T15:44:58;5.40;94.10
13589;DHT22;6865;52.552;13.434;2023-04-03T15:47:26;5.50;94.70
13589;DHT22;6865;52.552;13.434;2023-04-03T15:49:53;5.50;94.10
13589;DHT22;6865;52.552;13.434;2023-04-03T15:52:20;5.50;93.90
13589;DHT22;6865;52.552;13.434;2023-04-03T15:54:47;4.30;93.50
13589;DHT22;6865;52.552;13.434;2023-04-03T15:57:14;5.30;93.90
13589;DHT22;6865;52.552;13.434;2023-04-03T15:59:40;5.10;93.90
13589;DHT22;6865;52.552;13.434;2023-04-03T16:02:08;5.00;94.30
13589;DHT22;6865;52.552;13.434;2023-04-03T16:04:36;4.90;94.50
13589;DHT22;6865;52.552;13.434;2023-04-03T16:07:04;4.90;94.80
13589;DHT22;6865;52.552;13.434;2023-04-03T16:09:32;4.90;95.00
13589;DHT22;6865;52.552;13.434;2023-04-03T16:12:00;5.00;95.00
13589;DHT22;6865;52.552;13.434;2023-04-03T16:14:28;5.10;94.90
13589;DHT22;6865;52.552;13.434;2023-04-03T16:16:57;5.30;94.90
13589;DHT22;6865;52.552;13.434;2023-04-03T16:19:25;5.40;94.60
13589;DHT22;6865;52.552;13.434;2023-04-03T16:21:53;5.50;94.40
13589;DHT22;6865;52.552;13.434;2023-04-03T16:24:20;5.60;94.20
13589;DHT22;6865;52.552;13.434;2023-04-03T16:26:47;5.60;94.20
13589;DHT22;6865;52.552;13.434;2023-04-03T16:29:14;5.60;94.10
13589;DHT22;6865;52.552;13.434;2023-04-03T16:31:41;5.50;94.20
13589;DHT22;6865;52.552;13.434;2023-04-03T16:34:08;5.50;94.40
13589;DHT22;6865;52.552;13.434;2023-04-03T16:36:34;5.40;94.30
13589;DHT22;6865;52.552;13.434;2023-04-03T16:39:01;5.30;94.50
13589;DHT22;6865;52.552;13.434;2023-04-03T16:41:28;5.20;94.40
13589;DHT22;6865;52.552;13.434;2023-04-03T16:43:54;5.10;94.60
13589;DHT22;6865;52.552;13.434;2023-04-03T16:46:21;5.00;94.80
13589;DHT22;6865;52.552;13.434;2023-04-03T16:48:48;4.80;95.00
13589;DHT22;6865;52.552;13.434;2023-04-03T16:51:14;4.80;95.20
13589;DHT22;6865;52.552;13.434;2023-04-03T16:53:41;4.80;95.20
13589;DHT22;6865;52.552;13.434;2023-04-03T16:56:08;4.80;95.50
13589;DHT22;6865;52.552;13.434;2023-04-03T16:58:38;4.80;95.60
13589;DHT22;6865;52.552;13.434;2023-04-03T17:01:13;4.80;95.70
13589;DHT22;6865;52.552;13.434;2023-04-03T17:03:40;4.70;95.90
13589;DHT22;6865;52.552;13.434;2023-04-03T17:06:07;4.70;96.10
13589;DHT22;6865;52.552;13.434;2023-04-03T17:08:45;4.40;96.10
13589;DHT22;6865;52.552;13.434;2023-04-03T17:11:11;4.60;96.10
13589;DHT22;6865;52.552;13.434;2023-04-03T17:13:38;4.60;96.20
13589;DHT22;6865;52.552;13.434;2023-04-03T17:16:08;4.60;96.20